Time;durP1;ratioP1;P1;durP2;ratioP2;P2;SDS_P1;SDS_P2;PMS_P1;PMS_P2;Temp;Humidity;BMP_temperature;BMP_pressure;BME280_temperature;BME280_humidity;BME280_pressure;Samples;Min_cycle;Max_cycle;Signal;HPM_P1;HPM_P2
2023/11/17 00:01:57;;;;;;;15.33;9.47;;;6.60;99.90;;;;;;4903354;29;37483;-76
2023/11/17 00:04:23;;;;;;;15.37;9.70;;;6.60;99.90;;;;;;4911112;29;36858;-76
2023/11/17 00:06:49;;;;;;;15.43;9.50;;;6.60;99.90;;;;;;4915044;29;37300;-76
2023/11/17 00:09:16;;;;;;;15.60;10.27;;;6.50;99.90;;;;;;4932683;28;38296;-76
2023/11/17 00:11:42;;;;;;;15.73;9.47;;;6.50;99.90;;;;;;4911384;29;38447;-76
2023/11/17 00:14:08;;;;;;;13.93;9.20;;;6.50;99.90;;;;;;4915392;28;37370;-76
2023/11/17 00:16:35;;;;;;;13.40;8.77;;;6.50;99.90;;;;;;4927227;28;37090;-75
2023/11/17 00:19:02;;;;;;;15.90;9.77;;;6.50;99.90;;;;;;4924802;29;37648;-76
2023/11/17 00:21:28;;;;;;;15.87;10.10;;;6.50;99.90;;;;;;4909901;28;48282;-76
2023/11/17 00:23:54;;;;;;;11.00;8.63;;;6.50;99.90;;;;;;4934917;28;38759;-76
2023/11/17 00:26:20;;;;;;;10.90;7.70;;;6.50;99.90;;;;;;4912175;28;36175;-75
2023/11/17 00:28:48;;;;;;;11.10;8.33;;;6.50;99.90;;;;;;4916406;29;39215;-75
2023/11/17 00:31:14;;;;;;;12.77;9.60;;;6.40;99.90;;;;;;4930212;28;38414;-76
2023/11/17 00:33:41;;;;;;;13.20;8.77;;;6.40;99.90;;;;;;4911638;29;37150;-76
2023/11/17 00:36:12;;;;;;;13.00;8.17;;;6.40;99.90;;;;;;4913635;28;35710;-76
2023/11/17 00:38:39;;;;;;;14.47;10.33;;;6.50;99.90;;;;;;4909640;29;38131;-76
2023/11/17 00:41:07;;;;;;;18.70;10.00;;;6.50;99.90;;;;;;4912856;28;37445;-76
2023/11/17 00:43:33;;;;;;;21.30;9.87;;;6.50;99.90;;;;;;4907396;28;38573;-76
2023/11/17 00:46:00;;;;;;;14.47;9.03;;;6.50;99.90;;;;;;4910894;29;36130;-76
2023/11/17 00:48:28;;;;;;;13.37;8.73;;;6.60;99.90;;;;;;4928842;28;47540;-75
2023/11/17 00:50:58;;;;;;;15.57;9.73;;;6.60;99.90;;;;;;4927664;28;38217;-75
2023/11/17 00:53:26;;;;;;;14.47;9.07;;;6.60;99.90;;;;;;4932383;28;38566;-76
2023/11/17 00:55:53;;;;;;;11.63;8.10;;;6.60;99.90;;;;;;4913879;29;37091;-76
2023/11/17 00:58:25;;;;;;;18.20;11.20;;;6.70;99.90;;;;;;4928191;28;38889;-76
2023/11/17 01:00:52;;;;;;;17.67;10.05;;;6.70;99.90;;;;;;4900806;28;38302;-76
2023/11/17 01:03:19;;;;;;;13.53;8.50;;;6.70;99.90;;;;;;4923299;29;36196;-76
2023/11/17 01:05:46;;;;;;;14.70;7.47;;;6.70;99.90;;;;;;4921004;29;37507;-76
2023/11/17 01:08:15;;;;;;;11.80;9.40;;;6.70;99.90;;;;;;4923924;28;37559;-76
2023/11/17 01:10:42;;;;;;;15.43;9.20;;;6.70;99.90;;;;;;4931415;28;39387;-76
2023/11/17 01:13:08;;;;;;;18.03;10.57;;;6.70;99.90;;;;;;4927112;28;37359;-77
2023/11/17 01:15:35;;;;;;;20.57;8.00;;;6.70;99.90;;;;;;4934510;28;36203;-76
2023/11/17 01:18:03;;;;;;;14.97;8.90;;;6.70;99.90;;;;;;4925560;28;38600;-76
2023/11/17 01:20:34;;;;;;;15.83;9.77;;;6.70;99.90;;;;;;4920218;28;47173;-76
2023/11/17 01:23:01;;;;;;;13.90;8.70;;;6.70;99.90;;;;;;4931406;28;37876;-76
2023/11/17 01:25:29;;;;;;;13.07;7.37;;;6.80;99.90;;;;;;4933887;28;47412;-76
2023/11/17 01:27:55;;;;;;;15.87;8.40;;;6.80;99.90;;;;;;4915974;28;37866;-76
2023/11/17 01:30:21;;;;;;;13.83;8.30;;;6.80;99.90;;;;;;4908225;28;37344;-76
2023/11/17 01:32:49;;;;;;;17.93;9.17;;;6.90;99.90;;;;;;4933149;28;38225;-76
2023/11/17 01:35:15;;;;;;;14.13;8.20;;;6.90;99.90;;;;;;4910675;28;37540;-77
2023/11/17 01:37:41;;;;;;;11.47;7.87;;;6.90;99.90;;;;;;4934940;28;38579;-77
2023/11/17 01:40:08;;;;;;;12.73;7.50;;;6.90;99.90;;;;;;4932584;28;40024;-77
2023/11/17 01:42:36;;;;;;;13.97;7.50;;;6.90;99.90;;;;;;4933604;28;38079;-77
2023/11/17 01:45:07;;;;;;;13.33;7.60;;;6.90;99.90;;;;;;4923421;28;37862;-77
2023/11/17 01:47:39;;;;;;;12.40;7.93;;;6.90;99.90;;;;;;4933128;28;46690;-76
2023/11/17 01:50:09;;;;;;;12.00;6.93;;;6.90;99.90;;;;;;4921824;28;38257;-76
2023/11/17 01:52:38;;;;;;;15.60;8.53;;;6.90;99.90;;;;;;4919814;29;37487;-76
2023/11/17 01:55:07;;;;;;;14.03;8.17;;;6.90;99.90;;;;;;4922684;29;38243;-77
2023/11/17 01:57:37;;;;;;;9.83;6.93;;;6.90;99.90;;;;;;4900016;29;47301;-76
2023/11/17 02:00:13;;;;;;;11.20;6.73;;;7.00;99.90;;;;;;4906454;28;38357;-77
2023/11/17 02:02:51;;;;;;;10.80;6.50;;;6.90;99.90;;;;;;5347329;23;37150;-77
2023/11/17 02:05:20;;;;;;;9.63;7.27;;;6.90;99.90;;;;;;4909651;29;37654;-77
2023/11/17 02:07:57;;;;;;;10.73;7.47;;;6.80;99.90;;;;;;4896707;29;38065;-76
2023/11/17 02:10:38;;;;;;;10.43;7.77;;;6.90;99.90;;;;;;4912016;29;37262;-77
2023/11/17 02:13:25;;;;;;;16.43;7.90;;;6.80;99.90;;;;;;4890952;29;36894;-76
2023/11/17 02:15:54;;;;;;;16.17;7.87;;;6.90;99.90;;;;;;4892600;29;35809;-77
2023/11/17 02:18:24;;;;;;;14.87;8.20;;;6.90;99.90;;;;;;4913070;29;38917;-76
2023/11/17 02:20:52;;;;;;;23.07;9.80;;;7.00;99.90;;;;;;4892182;29;37642;-77
2023/11/17 02:23:20;;;;;;;18.17;9.40;;;7.00;99.90;;;;;;4890673;29;38946;-78
2023/11/17 02:26:20;;;;;;;22.57;9.63;;;7.00;99.90;;;;;;4892481;29;36329;-77
2023/11/17 02:29:00;;;;;;;26.33;12.13;;;7.00;99.90;;;;;;4894845;29;48661;-78
2023/11/17 02:31:32;;;;;;;18.73;10.20;;;7.00;99.90;;;;;;4906044;29;39292;-79
2023/11/17 02:34:16;;;;;;;16.45;10.00;;;7.00;99.90;;;;;;4911067;29;38075;-77
2023/11/17 02:36:45;;;;;;;24.47;11.97;;;7.00;99.90;;;;;;4908712;29;48789;-77
2023/11/17 02:39:29;;;;;;;31.10;12.67;;;7.10;99.90;;;;;;4885727;29;37738;-76
2023/11/17 02:41:58;;;;;;;25.23;12.83;;;7.10;99.90;;;;;;4886081;29;37586;-76
2023/11/17 02:44:29;;;;;;;26.03;14.27;;;7.10;99.90;;;;;;4892041;29;37910;-78
2023/11/17 02:46:59;;;;;;;26.37;13.60;;;7.20;99.90;;;;;;4909697;29;37178;-77
2023/11/17 02:49:34;;;;;;;25.50;13.93;;;7.20;99.90;;;;;;4892881;29;38091;-77
2023/11/17 02:52:08;;;;;;;25.37;13.90;;;7.20;99.90;;;;;;4886189;29;37823;-77
2023/11/17 02:54:35;;;;;;;24.63;14.03;;;7.30;99.90;;;;;;4907330;29;47145;-77
2023/11/17 02:57:03;;;;;;;24.03;14.07;;;7.30;99.90;;;;;;4909531;29;37467;-78
2023/11/17 02:59:35;;;;;;;22.27;11.63;;;7.30;99.90;;;;;;4906725;29;37668;-78
2023/11/17 03:02:05;;;;;;;22.97;11.87;;;7.20;99.90;;;;;;4890984;29;37665;-77
2023/11/17 03:04:32;;;;;;;20.00;11.40;;;7.20;99.90;;;;;;4903415;29;48716;-77
2023/11/17 03:07:01;;;;;;;22.97;12.80;;;7.20;99.90;;;;;;4893231;29;36409;-77
2023/11/17 03:09:30;;;;;;;21.17;12.00;;;7.20;99.90;;;;;;4909050;29;49774;-78
2023/11/17 03:11:59;;;;;;;21.83;13.40;;;7.20;99.90;;;;;;4907660;29;38644;-76
2023/11/17 03:14:26;;;;;;;18.57;12.43;;;7.20;99.90;;;;;;4917056;29;37936;-77
2023/11/17 03:16:56;;;;;;;15.83;10.87;;;7.20;99.90;;;;;;4898287;29;36693;-77
2023/11/17 03:19:23;;;;;;;20.87;11.43;;;7.20;99.90;;;;;;4894688;29;39041;-77
2023/11/17 03:21:50;;;;;;;19.87;11.50;;;7.20;99.90;;;;;;4888443;29;37465;-78
2023/11/17 03:24:20;;;;;;;21.67;12.63;;;7.20;99.90;;;;;;4898812;29;37657;-78
2023/11/17 03:26:50;;;;;;;24.03;12.60;;;7.20;99.90;;;;;;4895701;29;37600;-78
2023/11/17 03:29:17;;;;;;;23.23;12.70;;;7.20;99.90;;;;;;4894384;29;38157;-77
2023/11/17 03:31:52;;;;;;;23.57;12.80;;;7.20;99.90;;;;;;4909099;29;38212;-77
2023/11/17 03:34:23;;;;;;;21.97;11.67;;;7.20;99.90;;;;;;4892703;29;38454;-78
2023/11/17 03:37:00;;;;;;;19.67;11.73;;;7.20;99.90;;;;;;4896405;29;36147;-78
2023/11/17 03:39:31;;;;;;;19.67;11.30;;;7.10;99.90;;;;;;4896541;29;37831;-78
2023/11/17 03:41:59;;;;;;;18.60;10.97;;;7.10;99.90;;;;;;4912742;29;38595;-78
2023/11/17 03:44:25;;;;;;;23.93;10.87;;;7.10;99.90;;;;;;4904500;29;38047;-77
2023/11/17 03:46:51;;;;;;;17.73;10.23;;;7.00;99.90;;;;;;4913394;29;37127;-78
2023/11/17 03:49:20;;;;;;;19.63;11.93;;;7.00;99.90;;;;;;4902181;29;40104;-78
2023/11/17 03:51:50;;;;;;;20.10;11.87;;;7.00;99.90;;;;;;4903756;29;37655;-78
2023/11/17 03:54:19;;;;;;;19.57;12.57;;;7.00;99.90;;;;;;4906554;29;37647;-77
2023/11/17 03:56:47;;;;;;;21.77;13.57;;;6.90;99.90;;;;;;4899887;29;38236;-78
2023/11/17 03:59:13;;;;;;;20.97;13.10;;;7.00;99.90;;;;;;4900436;29;38556;-78
2023/11/17 04:01:49;;;;;;;19.63;12.77;;;7.00;99.90;;;;;;4898554;29;38248;-78
2023/11/17 04:04:17;;;;;;;36.63;17.50;;;7.00;99.90;;;;;;4887753;29;38470;-77
2023/11/17 04:06:52;;;;;;;22.17;13.47;;;7.00;99.90;;;;;;4896541;29;36265;-77
2023/11/17 04:09:22;;;;;;;30.33;17.13;;;7.00;99.90;;;;;;4894883;29;37757;-77
2023/11/17 04:11:51;;;;;;;22.37;13.90;;;6.90;99.90;;;;;;4899962;29;38657;-78
2023/11/17 04:14:22;;;;;;;23.67;13.93;;;6.90;99.90;;;;;;4905460;29;38440;-78
2023/11/17 04:16:49;;;;;;;24.50;14.07;;;6.90;99.90;;;;;;4892584;29;36636;-79
2023/11/17 04:19:19;;;;;;;30.80;16.90;;;6.80;99.90;;;;;;4906664;29;38544;-79
2023/11/17 04:21:46;;;;;;;27.37;15.90;;;6.80;99.90;;;;;;4882943;29;37257;-78
2023/11/17 04:24:13;;;;;;;31.43;18.23;;;6.80;99.90;;;;;;4901256;29;39243;-77
2023/11/17 04:26:40;;;;;;;23.27;15.10;;;6.80;99.90;;;;;;4894881;29;37813;-76
2023/11/17 04:29:08;;;;;;;26.17;16.57;;;6.90;99.90;;;;;;4894845;29;38185;-76
2023/11/17 04:31:34;;;;;;;30.43;17.83;;;6.80;99.90;;;;;;4905060;29;38273;-76
2023/11/17 04:34:00;;;;;;;27.53;15.47;;;6.90;99.90;;;;;;4905434;29;38102;-76
2023/11/17 04:36:26;;;;;;;33.13;19.13;;;6.90;99.90;;;;;;4907073;29;37597;-77
2023/11/17 04:38:55;;;;;;;31.60;18.60;;;6.90;99.90;;;;;;4886951;29;37657;-76
2023/11/17 04:41:23;;;;;;;30.60;18.37;;;6.90;99.90;;;;;;4903249;29;37442;-76
2023/11/17 04:43:49;;;;;;;29.27;18.60;;;6.90;99.90;;;;;;4904204;29;39138;-77
2023/11/17 04:46:21;;;;;;;32.03;18.03;;;6.90;99.90;;;;;;4884903;29;37609;-76
2023/11/17 04:48:47;;;;;;;35.25;19.70;;;6.90;99.90;;;;;;4896724;29;37943;-77
2023/11/17 04:51:13;;;;;;;31.33;19.90;;;6.90;99.90;;;;;;4893912;29;38958;-78
2023/11/17 04:53:40;;;;;;;37.53;21.27;;;6.90;99.90;;;;;;4904605;29;35883;-77
2023/11/17 04:56:07;;;;;;;32.10;20.13;;;7.00;99.90;;;;;;4892866;29;37898;-77
2023/11/17 04:58:34;;;;;;;32.27;20.67;;;7.00;99.90;;;;;;4906946;29;39169;-77
2023/11/17 05:01:00;;;;;;;34.17;19.60;;;7.00;99.90;;;;;;4897489;29;38093;-77
2023/11/17 05:03:26;;;;;;;36.97;21.23;;;7.00;99.90;;;;;;4902705;29;37990;-77
2023/11/17 05:05:52;;;;;;;39.63;21.90;;;7.00;99.90;;;;;;4890861;29;36546;-77
2023/11/17 05:08:18;;;;;;;34.40;22.37;;;7.00;99.90;;;;;;4893573;29;37735;-76
2023/11/17 05:10:45;;;;;;;36.90;21.67;;;7.00;99.90;;;;;;4904610;29;37865;-78
2023/11/17 05:13:13;;;;;;;33.90;20.40;;;6.90;99.90;;;;;;4894853;29;37185;-78
2023/11/17 05:15:46;;;;;;;33.27;20.03;;;7.00;99.90;;;;;;4895864;29;36753;-78
2023/11/17 05:18:12;;;;;;;39.77;21.53;;;7.00;99.90;;;;;;4912627;29;39962;-77
2023/11/17 05:20:39;;;;;;;37.17;20.93;;;6.90;99.90;;;;;;4894436;29;37287;-78
2023/11/17 05:23:07;;;;;;;35.17;21.63;;;6.90;99.90;;;;;;4890236;29;37211;-77
2023/11/17 05:25:33;;;;;;;34.40;21.43;;;6.90;99.90;;;;;;4910648;29;37427;-77
2023/11/17 05:27:59;;;;;;;32.53;20.50;;;6.90;99.90;;;;;;4910945;29;38529;-77
2023/11/17 05:30:26;;;;;;;32.47;21.10;;;6.90;99.90;;;;;;4898329;29;38270;-77
2023/11/17 05:32:52;;;;;;;42.17;23.20;;;6.90;99.90;;;;;;4915610;28;38733;-78
2023/11/17 05:35:18;;;;;;;32.47;19.63;;;6.90;99.90;;;;;;4890955;29;36656;-78
2023/11/17 05:37:44;;;;;;;30.03;20.20;;;6.90;99.90;;;;;;4906355;29;40176;-77
2023/11/17 05:40:11;;;;;;;27.13;19.60;;;6.90;99.90;;;;;;4895196;29;39142;-77
2023/11/17 05:42:37;;;;;;;36.33;21.80;;;6.90;99.90;;;;;;4894090;29;37273;-78
2023/11/17 05:45:05;;;;;;;35.33;22.37;;;6.80;99.90;;;;;;4912074;29;38473;-78
2023/11/17 05:47:31;;;;;;;31.17;20.77;;;6.70;99.90;;;;;;4907436;29;48990;-77
2023/11/17 05:49:58;;;;;;;45.30;22.37;;;6.70;99.90;;;;;;4893985;29;37361;-78
2023/11/17 05:52:24;;;;;;;36.43;21.83;;;6.70;99.90;;;;;;4910447;29;38712;-78
2023/11/17 05:54:51;;;;;;;39.67;21.87;;;6.70;99.90;;;;;;4895599;29;36465;-79
2023/11/17 05:57:18;;;;;;;38.03;22.77;;;6.70;99.90;;;;;;4911849;29;38725;-76
2023/11/17 05:59:47;;;;;;;47.00;25.57;;;6.70;99.90;;;;;;4913005;28;36505;-76
2023/11/17 06:02:16;;;;;;;38.73;23.23;;;6.70;99.90;;;;;;4911484;29;38243;-76
2023/11/17 06:04:42;;;;;;;46.27;24.63;;;6.70;99.90;;;;;;4888979;29;37648;-78
2023/11/17 06:07:08;;;;;;;48.57;25.03;;;6.70;99.90;;;;;;4891819;29;37548;-75
2023/11/17 06:09:38;;;;;;;51.60;28.07;;;6.80;99.90;;;;;;4895737;29;37543;-76
2023/11/17 06:12:05;;;;;;;40.87;24.07;;;6.80;99.90;;;;;;4887888;29;40285;-85
2023/11/17 06:14:33;;;;;;;36.70;23.43;;;6.80;99.90;;;;;;4883428;29;36872;-78
2023/11/17 06:17:08;;;;;;;51.73;26.57;;;6.80;99.90;;;;;;4887276;29;36575;-77
2023/11/17 06:19:39;;;;;;;53.00;26.47;;;6.80;99.90;;;;;;4888385;29;47193;-83
2023/11/17 06:22:06;;;;;;;42.60;25.13;;;6.80;99.90;;;;;;4896355;29;36974;-81
2023/11/17 06:24:33;;;;;;;43.40;25.17;;;6.70;99.90;;;;;;4913610;29;37166;-80
2023/11/17 06:26:59;;;;;;;39.23;24.50;;;6.70;99.90;;;;;;4895764;29;37555;-81
2023/11/17 06:29:26;;;;;;;47.30;26.57;;;6.70;99.90;;;;;;4910743;29;39485;-80
2023/11/17 06:31:52;;;;;;;44.17;25.90;;;6.70;99.90;;;;;;4897104;29;38723;-80
2023/11/17 06:34:18;;;;;;;47.73;26.73;;;6.60;99.90;;;;;;4894160;29;37180;-78
2023/11/17 06:36:45;;;;;;;38.10;22.97;;;6.50;99.90;;;;;;4904547;29;39522;-77
2023/11/17 06:39:15;;;;;;;49.07;27.07;;;6.50;99.90;;;;;;4890031;29;37536;-81
2023/11/17 06:41:51;;;;;;;48.20;26.50;;;6.50;99.90;;;;;;4903705;29;38315;-79
2023/11/17 06:44:19;;;;;;;45.47;25.03;;;6.40;99.90;;;;;;4888036;29;36807;-78
2023/11/17 06:46:47;;;;;;;57.50;30.03;;;6.40;99.90;;;;;;4874492;29;37307;-79
2023/11/17 06:49:19;;;;;;;40.67;26.00;;;6.40;99.90;;;;;;4893058;29;38917;-79
2023/11/17 06:51:50;;;;;;;42.00;26.40;;;6.40;99.90;;;;;;4875400;29;38392;-81
2023/11/17 06:54:18;;;;;;;52.30;30.03;;;6.40;99.90;;;;;;4888206;29;38485;-79
2023/11/17 06:56:46;;;;;;;55.33;30.17;;;6.50;99.90;;;;;;4886245;29;40571;-80
2023/11/17 06:59:17;;;;;;;54.87;30.70;;;6.50;99.90;;;;;;4870728;29;38677;-80
2023/11/17 07:01:46;;;;;;;66.63;33.57;;;6.50;99.90;;;;;;4883455;29;36833;-80
2023/11/17 07:04:12;;;;;;;47.00;30.67;;;6.60;99.90;;;;;;4877243;29;37670;-81
2023/11/17 07:06:42;;;;;;;58.30;31.37;;;6.60;99.90;;;;;;4877595;29;38255;-80
2023/11/17 07:09:23;;;;;;;58.80;32.13;;;6.60;99.90;;;;;;4876445;29;37496;-82
2023/11/17 07:11:54;;;;;;;58.13;32.27;;;6.70;99.90;;;;;;4890072;29;37793;-81
2023/11/17 07:14:21;;;;;;;49.27;28.80;;;6.60;99.90;;;;;;4872939;29;36464;-83
2023/11/17 07:16:49;;;;;;;58.17;31.87;;;6.60;99.90;;;;;;4892231;29;38357;-84
2023/11/17 07:19:18;;;;;;;43.13;29.20;;;6.60;99.90;;;;;;4872091;29;37500;-81
2023/11/17 07:21:45;;;;;;;56.90;33.30;;;6.70;99.90;;;;;;4889523;29;37201;-82
2023/11/17 07:24:12;;;;;;;59.17;34.40;;;6.80;99.90;;;;;;4892646;29;37422;-81
2023/11/17 07:26:38;;;;;;;57.23;34.20;;;6.80;99.90;;;;;;4891905;29;37954;-83
2023/11/17 07:29:05;;;;;;;56.47;33.30;;;6.80;99.90;;;;;;4909563;29;38915;-78
2023/11/17 07:31:37;;;;;;;47.93;30.37;;;6.80;99.90;;;;;;4895442;29;38007;-81
2023/11/17 07:34:07;;;;;;;59.88;34.20;;;6.90;99.90;;;;;;4893906;29;36591;-81
2023/11/17 07:36:38;;;;;;;65.80;37.27;;;6.90;99.90;;;;;;4889400;29;37746;-80
2023/11/17 07:39:04;;;;;;;75.30;38.87;;;6.90;99.90;;;;;;4884183;29;36845;-82
2023/11/17 07:41:31;;;;;;;64.93;37.17;;;6.90;99.90;;;;;;4876364;29;37873;-83
2023/11/17 07:43:57;;;;;;;75.70;39.50;;;7.00;99.90;;;;;;4865850;29;37916;-78
2023/11/17 07:46:27;;;;;;;47.77;32.17;;;7.00;99.90;;;;;;4882797;29;38991;-80
2023/11/17 07:48:57;;;;;;;81.03;41.87;;;7.10;99.90;;;;;;4866048;29;38415;-80
2023/11/17 07:51:23;;;;;;;58.90;36.57;;;7.10;99.90;;;;;;4865229;29;37238;-80
2023/11/17 07:53:50;;;;;;;69.23;38.70;;;7.20;99.90;;;;;;4868609;29;36624;-81
2023/11/17 07:56:16;;;;;;;53.53;35.23;;;7.20;99.90;;;;;;4862675;29;38525;-80
2023/11/17 07:58:43;;;;;;;59.73;36.60;;;7.30;99.90;;;;;;4869225;29;37116;-80
2023/11/17 08:01:09;;;;;;;86.83;43.83;;;7.30;99.90;;;;;;4890037;29;38097;-80
2023/11/17 08:03:39;;;;;;;71.53;39.73;;;7.40;99.90;;;;;;4873273;29;34166;-79
2023/11/17 08:06:05;;;;;;;53.53;33.87;;;7.40;99.90;;;;;;4894930;29;38854;-75
2023/11/17 08:08:32;;;;;;;63.47;37.90;;;7.30;99.90;;;;;;4873133;29;39869;-78
2023/11/17 08:11:04;;;;;;;55.93;33.77;;;7.40;99.90;;;;;;4888595;29;37095;-87
2023/11/17 08:13:30;;;;;;;59.30;36.05;;;7.40;99.90;;;;;;4873990;29;47136;-76
2023/11/17 08:15:57;;;;;;;70.87;40.07;;;7.40;99.90;;;;;;4880834;29;38635;-77
2023/11/17 08:18:24;;;;;;;70.93;37.27;;;7.50;99.90;;;;;;4874680;29;38580;-77
2023/11/17 08:20:52;;;;;;;52.67;33.37;;;7.50;99.90;;;;;;4866668;29;39688;-78
2023/11/17 08:23:21;;;;;;;49.50;31.80;;;7.50;99.90;;;;;;4881181;29;38532;-78
2023/11/17 08:25:48;;;;;;;48.97;33.00;;;7.50;99.90;;;;;;4864368;29;37882;-77
2023/11/17 08:28:16;;;;;;;63.17;37.73;;;7.60;99.90;;;;;;4863846;29;38452;-77
2023/11/17 08:30:42;;;;;;;54.43;33.10;;;7.60;99.90;;;;;;4866375;29;37540;-77
2023/11/17 08:33:08;;;;;;;52.37;33.27;;;7.60;99.90;;;;;;4868564;29;38035;-77
2023/11/17 08:35:36;;;;;;;59.43;34.90;;;7.70;99.90;;;;;;4876447;29;38231;-76
2023/11/17 08:38:02;;;;;;;58.90;34.47;;;7.70;99.90;;;;;;4881466;29;38229;-79
2023/11/17 08:40:28;;;;;;;51.17;33.10;;;7.70;99.90;;;;;;4871933;29;38010;-76
2023/11/17 08:42:54;;;;;;;44.77;28.77;;;7.70;99.90;;;;;;4868023;29;36762;-79
2023/11/17 08:45:20;;;;;;;51.67;30.33;;;7.80;99.90;;;;;;4873060;29;38161;-81
2023/11/17 08:47:48;;;;;;;52.27;31.33;;;7.90;99.90;;;;;;4861544;29;37271;-80
2023/11/17 08:50:15;;;;;;;49.17;30.40;;;7.90;99.90;;;;;;4861936;29;37335;-79
2023/11/17 08:52:45;;;;;;;47.17;28.77;;;8.00;99.90;;;;;;4867596;29;40684;-80
2023/11/17 08:55:13;;;;;;;50.17;31.87;;;8.00;99.90;;;;;;4883696;29;39770;-79
2023/11/17 08:57:44;;;;;;;46.30;28.80;;;8.00;99.90;;;;;;4864255;29;39118;-80
2023/11/17 09:00:13;;;;;;;50.27;29.63;;;8.10;99.90;;;;;;4868991;29;37486;-80
2023/11/17 09:02:48;;;;;;;35.77;25.27;;;8.20;99.90;;;;;;4862916;29;36967;-80
2023/11/17 09:05:16;;;;;;;44.73;29.27;;;8.20;99.90;;;;;;4864240;29;38764;-79
2023/11/17 09:07:44;;;;;;;38.20;27.13;;;8.30;99.90;;;;;;4885025;29;38545;-82
2023/11/17 09:10:14;;;;;;;42.93;28.53;;;8.30;99.90;;;;;;4866313;29;36957;-78
2023/11/17 09:12:42;;;;;;;37.23;26.97;;;8.40;99.90;;;;;;4862924;29;36762;-79
2023/11/17 09:15:13;;;;;;;40.83;28.67;;;8.50;99.90;;;;;;4863566;29;38681;-78
2023/11/17 09:17:43;;;;;;;32.93;24.80;;;8.50;99.90;;;;;;4868544;29;37562;-79
2023/11/17 09:20:13;;;;;;;34.50;25.80;;;8.50;99.90;;;;;;4866969;29;38649;-79
2023/11/17 09:22:42;;;;;;;33.57;24.87;;;8.60;99.90;;;;;;4885216;29;37235;-78
2023/11/17 09:25:15;;;;;;;35.30;25.13;;;8.50;99.90;;;;;;4866837;29;39325;-78
2023/11/17 09:27:44;;;;;;;37.50;25.87;;;8.60;99.90;;;;;;4870292;29;37297;-80
2023/11/17 09:30:21;;;;;;;33.33;24.60;;;8.60;99.90;;;;;;4868420;29;38626;-78
2023/11/17 09:32:54;;;;;;;30.50;22.70;;;8.70;99.90;;;;;;4870458;29;36783;-79
2023/11/17 09:35:22;;;;;;;46.23;27.17;;;8.70;99.90;;;;;;4862566;29;37985;-79
2023/11/17 09:38:04;;;;;;;38.37;25.40;;;8.60;99.90;;;;;;4869145;29;37107;-78
2023/11/17 09:40:34;;;;;;;30.98;20.90;;;8.50;99.90;;;;;;4863958;29;47285;-78
2023/11/17 09:43:23;;;;;;;29.33;21.07;;;8.40;99.90;;;;;;4867554;29;37419;-78
2023/11/17 09:45:54;;;;;;;36.17;23.93;;;8.40;99.90;;;;;;4879718;29;49808;-79
2023/11/17 09:48:23;;;;;;;32.03;21.77;;;8.40;99.90;;;;;;4867207;29;40279;-77
2023/11/17 09:50:50;;;;;;;30.47;22.03;;;8.50;99.90;;;;;;4878827;29;39099;-77
2023/11/17 09:53:17;;;;;;;30.70;21.67;;;8.50;99.90;;;;;;4881682;29;37846;-81
2023/11/17 09:55:44;;;;;;;27.17;20.93;;;8.50;99.90;;;;;;4863595;29;38463;-80
2023/11/17 09:58:14;;;;;;;27.43;21.00;;;8.60;99.90;;;;;;4884729;29;37905;-79
2023/11/17 10:00:43;;;;;;;29.10;20.77;;;8.60;99.90;;;;;;4883919;29;39002;-78
2023/11/17 10:03:10;;;;;;;34.43;19.37;;;8.60;99.90;;;;;;4862011;29;36596;-79
2023/11/17 10:05:38;;;;;;;24.83;18.03;;;8.50;99.90;;;;;;4866564;29;37610;-79
2023/11/17 10:08:13;;;;;;;29.87;19.70;;;8.50;99.90;;;;;;4868466;29;37245;-78
2023/11/17 10:10:47;;;;;;;25.50;17.20;;;8.40;99.90;;;;;;4870656;29;37603;-77
2023/11/17 10:13:16;;;;;;;24.70;17.63;;;8.40;99.90;;;;;;4865082;29;36722;-79
2023/11/17 10:15:45;;;;;;;23.43;16.57;;;8.50;99.90;;;;;;4866238;29;38999;-79
2023/11/17 10:18:24;;;;;;;24.67;16.60;;;8.60;99.90;;;;;;4862659;29;39325;-79
2023/11/17 10:20:51;;;;;;;21.53;15.80;;;8.70;99.90;;;;;;4862534;29;37827;-79
2023/11/17 10:23:19;;;;;;;17.97;13.17;;;8.90;99.90;;;;;;4862021;29;38206;-80
2023/11/17 10:25:53;;;;;;;19.53;13.93;;;9.00;99.90;;;;;;4863594;29;37691;-80
2023/11/17 10:28:20;;;;;;;15.43;11.93;;;9.10;99.90;;;;;;4863772;29;39047;-79
2023/11/17 10:30:47;;;;;;;16.30;10.67;;;9.20;99.90;;;;;;4863084;29;36650;-79
2023/11/17 10:33:40;;;;;;;13.93;9.80;;;9.30;99.90;;;;;;4859420;29;35582;-78
2023/11/17 10:36:10;;;;;;;13.93;7.93;;;9.50;99.90;;;;;;4864470;29;39690;-80
2023/11/17 10:38:38;;;;;;;10.90;8.17;;;9.60;99.90;;;;;;4864795;29;38006;-81
2023/11/17 10:41:17;;;;;;;11.10;7.37;;;9.70;99.90;;;;;;4877342;29;37463;-80
2023/11/17 10:43:52;;;;;;;9.80;7.17;;;9.80;99.90;;;;;;4879739;29;36819;-80
2023/11/17 10:46:22;;;;;;;8.65;6.45;;;10.00;99.90;;;;;;4882951;29;39358;-79
2023/11/17 10:48:50;;;;;;;10.13;6.80;;;10.00;99.90;;;;;;4867157;29;38569;-80
2023/11/17 10:51:21;;;;;;;8.07;6.57;;;10.10;99.90;;;;;;4858623;29;37208;-81
2023/11/17 10:54:08;;;;;;;9.05;6.90;;;10.10;99.90;;;;;;4881472;29;38464;-78
2023/11/17 10:56:36;;;;;;;7.18;6.22;;;10.10;99.90;;;;;;4881924;29;47728;-77
2023/11/17 10:59:09;;;;;;;9.77;6.73;;;10.10;99.90;;;;;;4863244;29;38708;-78
2023/11/17 11:01:40;;;;;;;9.60;7.05;;;10.20;99.90;;;;;;4856694;29;37312;-78
2023/11/17 11:04:09;;;;;;;6.70;5.93;;;10.20;99.90;;;;;;4880431;29;38337;-78
2023/11/17 11:06:41;;;;;;;9.63;5.95;;;10.20;99.90;;;;;;4863150;29;39583;-79
2023/11/17 11:09:08;;;;;;;11.07;6.38;;;10.20;99.90;;;;;;4865026;29;37338;-79
2023/11/17 11:11:35;;;;;;;7.15;5.35;;;10.20;99.90;;;;;;4875335;29;38793;-80
2023/11/17 11:14:03;;;;;;;6.82;5.22;;;10.20;99.90;;;;;;4861566;29;37608;-78
2023/11/17 11:16:32;;;;;;;8.00;5.30;;;10.20;99.90;;;;;;4879924;29;49083;-79
2023/11/17 11:18:59;;;;;;;5.95;5.03;;;10.30;99.90;;;;;;4884104;29;39477;-79
2023/11/17 11:21:33;;;;;;;7.05;4.97;;;10.40;99.90;;;;;;4878387;29;37695;-79
2023/11/17 11:24:01;;;;;;;6.13;4.50;;;10.40;99.90;;;;;;4863222;29;36453;-79
2023/11/17 11:26:28;;;;;;;7.30;5.20;;;10.30;99.90;;;;;;4862901;29;47383;-78
2023/11/17 11:28:57;;;;;;;7.50;4.70;;;10.30;99.90;;;;;;4864992;29;37761;-77
2023/11/17 11:31:23;;;;;;;7.28;5.18;;;10.20;99.90;;;;;;4865796;29;37218;-77
2023/11/17 11:33:50;;;;;;;7.43;5.22;;;10.20;99.90;;;;;;4863505;29;37428;-77
2023/11/17 11:36:18;;;;;;;9.18;4.78;;;10.20;99.90;;;;;;4864494;29;37786;-83
2023/11/17 11:38:49;;;;;;;7.18;5.00;;;10.20;99.90;;;;;;4869622;29;37321;-77
2023/11/17 11:41:22;;;;;;;6.47;4.23;;;10.30;99.90;;;;;;4880353;29;37137;-77
2023/11/17 11:43:52;;;;;;;7.20;4.90;;;10.40;99.90;;;;;;4884805;29;38108;-77
2023/11/17 11:46:23;;;;;;;6.32;4.03;;;10.50;99.90;;;;;;4869033;29;38989;-78
2023/11/17 11:48:55;;;;;;;7.57;4.43;;;10.70;99.90;;;;;;4869265;29;37583;-78
2023/11/17 11:51:25;;;;;;;6.50;4.65;;;10.80;99.90;;;;;;4861789;29;40392;-77
2023/11/17 11:53:58;;;;;;;8.18;4.78;;;10.90;99.90;;;;;;4865260;29;38033;-78
2023/11/17 11:56:33;;;;;;;7.87;4.80;;;10.80;99.90;;;;;;4866590;29;37891;-78
2023/11/17 11:59:00;;;;;;;9.63;5.20;;;10.70;99.90;;;;;;4881776;29;38190;-78
2023/11/17 12:01:32;;;;;;;6.57;5.03;;;10.70;99.90;;;;;;4879554;29;39252;-79
2023/11/17 12:04:00;;;;;;;9.48;4.85;;;10.60;99.90;;;;;;4865869;29;37000;-79
2023/11/17 12:06:29;;;;;;;6.90;4.78;;;10.60;99.90;;;;;;4857821;29;39565;-79
2023/11/17 12:08:55;;;;;;;5.68;4.90;;;10.70;99.90;;;;;;4879642;28;38188;-78
2023/11/17 12:11:22;;;;;;;5.82;4.22;;;10.90;99.90;;;;;;4865418;29;36880;-77
2023/11/17 12:13:49;;;;;;;4.85;3.97;;;11.00;99.90;;;;;;4885634;29;36672;-78
2023/11/17 12:16:21;;;;;;;6.72;4.32;;;11.10;99.90;;;;;;4882201;29;39589;-77
2023/11/17 12:18:50;;;;;;;4.22;3.83;;;11.10;99.90;;;;;;4863818;29;37491;-77
2023/11/17 12:21:21;;;;;;;5.35;4.00;;;11.10;99.90;;;;;;4868079;29;36864;-80
2023/11/17 12:23:48;;;;;;;5.50;4.05;;;11.20;99.90;;;;;;4868392;29;36244;-77
2023/11/17 12:26:20;;;;;;;5.05;3.13;;;11.30;99.90;;;;;;4862573;29;37498;-76
2023/11/17 12:28:47;;;;;;;3.40;3.10;;;11.50;99.90;;;;;;4865894;29;38310;-76
2023/11/17 12:31:14;;;;;;;3.65;3.08;;;11.50;99.90;;;;;;4877395;29;40331;-77
2023/11/17 12:33:46;;;;;;;5.28;3.42;;;11.70;99.90;;;;;;4865547;29;36281;-76
2023/11/17 12:36:24;;;;;;;3.80;2.67;;;11.70;99.90;;;;;;4864054;29;39261;-76
2023/11/17 12:38:58;;;;;;;5.60;3.08;;;11.80;99.90;;;;;;4862898;29;40342;-77
2023/11/17 12:41:26;;;;;;;2.75;2.13;;;12.00;99.90;;;;;;4863824;29;39652;-77
2023/11/17 12:43:56;;;;;;;3.65;1.70;;;12.00;99.90;;;;;;4883975;29;39249;-77
2023/11/17 12:46:29;;;;;;;2.63;2.00;;;12.00;99.90;;;;;;4868573;29;38108;-78
2023/11/17 12:48:57;;;;;;;2.83;1.95;;;12.00;99.90;;;;;;4883395;29;39201;-76
2023/11/17 12:51:28;;;;;;;2.55;1.88;;;12.20;99.90;;;;;;4878627;29;37396;-78